createdAt,value
2017-10-30T00:00:27.259Z,99521.42
2017-10-30T00:06:31.738Z,99522.48
2017-10-30T00:12:36.085Z,99519.68
2017-10-30T00:18:39.597Z,99527.67
2017-10-30T00:24:43.070Z,99526.16
2017-10-30T00:30:47.338Z,99546.88
2017-10-30T00:36:50.904Z,99546.23
2017-10-30T00:42:54.439Z,99566.27
2017-10-30T00:48:57.983Z,99562.30
2017-10-30T00:55:01.442Z,99564.59
2017-10-30T01:01:04.949Z,99559.27
2017-10-30T01:07:08.447Z,99568.35
2017-10-30T01:13:11.921Z,99566.01
2017-10-30T01:19:15.991Z,99577.58
2017-10-30T01:25:19.587Z,99559.03
2017-10-30T01:31:23.040Z,99574.59
2017-10-30T01:37:26.549Z,99572.52
2017-10-30T01:43:30.057Z,99583.31
2017-10-30T01:49:33.547Z,99575.61
2017-10-30T01:55:37.196Z,99577.02
2017-10-30T02:01:40.671Z,99578.56
2017-10-30T02:07:44.516Z,99584.66
2017-10-30T02:13:48.138Z,99586.65
2017-10-30T02:19:51.670Z,99585.84
2017-10-30T02:25:55.274Z,99580.91
2017-10-30T02:31:58.748Z,99595.98
2017-10-30T02:38:02.262Z,99607.88
2017-10-30T02:44:05.700Z,99606.94
2017-10-30T02:50:10.006Z,99618.84
2017-10-30T02:56:13.627Z,99615.28
2017-10-30T03:02:17.369Z,99611.22
2017-10-30T03:08:20.841Z,99628.94
2017-10-30T03:14:24.345Z,99630.59
2017-10-30T03:20:27.816Z,99638.27
2017-10-30T03:26:31.271Z,99643.31
2017-10-30T03:32:34.750Z,99648.97
2017-10-30T03:38:38.225Z,99654.31
2017-10-30T03:44:42.529Z,99661.58
2017-10-30T03:50:46.336Z,99671.50
2017-10-30T03:56:50.155Z,99686.28
2017-10-30T04:02:53.741Z,99686.31
2017-10-30T04:08:58.070Z,99697.23
2017-10-30T04:15:01.532Z,99708.39
2017-10-30T04:21:05.089Z,99703.14
2017-10-30T04:27:08.623Z,99716.40
2017-10-30T04:33:12.090Z,99728.97
2017-10-30T04:39:16.199Z,99725.66
2017-10-30T04:45:19.783Z,99730.44
2017-10-30T04:51:23.459Z,99737.92
2017-10-30T04:57:27.003Z,99739.61
2017-10-30T05:03:30.670Z,99745.34
2017-10-30T05:09:34.904Z,99754.25
2017-10-30T05:15:38.364Z,99759.73
2017-10-30T05:21:41.836Z,99761.77
2017-10-30T05:27:47.054Z,99760.56
2017-10-30T05:33:50.873Z,99769.44
2017-10-30T05:39:54.464Z,99783.97
2017-10-30T05:45:58.181Z,99786.52
2017-10-30T05:52:01.674Z,99793.89
2017-10-30T05:58:05.147Z,99796.52
2017-10-30T06:04:08.652Z,99807.36
2017-10-30T06:10:12.236Z,99807.91
2017-10-30T06:16:16.670Z,99825.92
2017-10-30T06:22:20.378Z,99840.80
2017-10-30T06:28:25.026Z,99851.98
2017-10-30T06:34:28.654Z,99866.16
2017-10-30T06:40:32.188Z,99877.34
2017-10-30T06:46:36.606Z,99883.91
2017-10-30T06:52:40.188Z,99892.59
2017-10-30T06:58:44.088Z,99905.08
2017-10-30T07:04:48.432Z,99911.83
2017-10-30T07:10:52.242Z,99920.88
2017-10-30T07:16:55.717Z,99933.03
2017-10-30T07:22:59.189Z,99942.72
2017-10-30T07:29:02.693Z,99954.30
2017-10-30T07:35:06.258Z,99963.11
2017-10-30T07:41:09.795Z,99961.05
2017-10-30T07:47:13.606Z,99963.65
2017-10-30T07:53:18.889Z,99974.95
2017-10-30T07:59:22.389Z,99970.28
2017-10-30T08:05:26.796Z,99972.70
2017-10-30T08:11:30.332Z,99981.64
2017-10-30T08:17:33.803Z,99992.60
2017-10-30T08:23:37.305Z,99992.72
2017-10-30T08:29:41.655Z,100002.76
2017-10-30T08:35:45.504Z,100004.35
2017-10-30T08:41:49.199Z,100012.45
2017-10-30T08:47:52.675Z,100022.50
2017-10-30T08:53:56.217Z,100033.67
2017-10-30T09:00:00.538Z,100035.92
2017-10-30T09:06:04.020Z,100037.35
2017-10-30T09:12:07.520Z,100039.55
2017-10-30T09:18:10.981Z,100062.64
2017-10-30T09:24:14.575Z,100056.52
2017-10-30T09:30:18.439Z,100068.57
2017-10-30T09:36:21.959Z,100063.95
2017-10-30T09:42:26.282Z,100081.66
2017-10-30T09:48:29.810Z,100088.37
2017-10-30T09:54:33.632Z,100091.50
2017-10-30T10:00:37.891Z,100091.93
2017-10-30T10:06:41.540Z,100098.70
2017-10-30T10:12:45.805Z,100095.70
2017-10-30T10:18:49.812Z,100094.48
2017-10-30T10:24:53.298Z,100091.37
2017-10-30T10:30:56.809Z,100098.62
2017-10-30T10:37:00.831Z,100101.94
2017-10-30T10:43:04.514Z,100098.53
2017-10-30T10:49:09.077Z,100098.61
2017-10-30T10:55:12.595Z,100095.09
2017-10-30T11:01:16.953Z,100105.48
2017-10-30T11:07:20.432Z,100095.17
2017-10-30T11:13:24.081Z,100104.66
2017-10-30T11:19:27.573Z,100109.88
2017-10-30T11:25:31.058Z,100104.22
2017-10-30T11:31:34.869Z,100106.18
2017-10-30T11:37:38.751Z,100103.09
2017-10-30T11:43:42.628Z,100101.14
2017-10-30T11:49:48.363Z,100098.47
2017-10-30T11:55:51.873Z,100093.99
2017-10-30T12:01:55.515Z,100101.63
2017-10-30T12:07:58.995Z,100103.25
2017-10-30T12:14:03.239Z,100105.55
2017-10-30T12:20:06.721Z,100108.34
2017-10-30T12:26:11.082Z,100110.03
2017-10-30T12:32:15.170Z,100116.08
2017-10-30T12:38:20.427Z,100125.02
2017-10-30T12:44:25.428Z,100127.72
2017-10-30T12:50:29.221Z,100111.34
2017-10-30T12:56:32.686Z,100132.09
2017-10-30T13:02:36.233Z,100131.22
2017-10-30T13:08:39.801Z,100110.11
2017-10-30T13:14:43.644Z,100126.97
2017-10-30T13:20:47.666Z,100134.60
2017-10-30T13:26:51.160Z,100148.14
2017-10-30T13:32:55.917Z,100143.01
2017-10-30T13:38:59.862Z,100149.30
2017-10-30T13:45:03.382Z,100150.83
2017-10-30T13:51:06.853Z,100156.70
2017-10-30T13:57:10.358Z,100162.28
2017-10-30T14:03:14.076Z,100158.47
2017-10-30T14:09:18.479Z,100158.28
2017-10-30T14:15:22.814Z,100167.58
2017-10-30T14:21:26.490Z,100166.09
2017-10-30T14:27:30.098Z,100180.63
2017-10-30T14:33:33.602Z,100174.36
2017-10-30T14:39:37.053Z,100182.16
2017-10-30T14:45:40.613Z,100183.09
2017-10-30T14:51:44.873Z,100194.30
2017-10-30T14:57:49.209Z,100208.73
2017-10-30T15:03:53.420Z,100210.92
2017-10-30T15:09:56.987Z,100209.94
2017-10-30T15:16:00.446Z,100206.74
2017-10-30T15:22:03.947Z,100211.34
2017-10-30T15:28:07.551Z,100209.45
2017-10-30T15:34:11.023Z,100217.68
2017-10-30T15:40:16.287Z,100228.96
2017-10-30T15:46:19.957Z,100230.32
2017-10-30T15:52:23.594Z,100235.30
2017-10-30T15:58:28.544Z,100242.18
2017-10-30T16:04:32.793Z,100244.07
2017-10-30T16:10:36.360Z,100258.25
2017-10-30T16:16:39.847Z,100258.25
2017-10-30T16:22:44.453Z,100260.17
2017-10-30T16:28:48.591Z,100267.27
2017-10-30T16:34:52.595Z,100261.36
2017-10-30T16:40:56.077Z,100267.83
2017-10-30T16:46:59.838Z,100269.30
2017-10-30T16:53:03.312Z,100279.90
2017-10-30T16:59:07.569Z,100284.94
2017-10-30T17:05:11.045Z,100296.02
2017-10-30T17:11:14.721Z,100294.52
2017-10-30T17:17:18.326Z,100302.73
2017-10-30T17:23:21.887Z,100306.48
2017-10-30T17:29:25.393Z,100308.75
2017-10-30T17:35:29.214Z,100317.43
2017-10-30T17:41:33.502Z,100323.47
2017-10-30T17:47:36.976Z,100327.39
2017-10-30T17:53:40.651Z,100323.42
2017-10-30T17:59:45.049Z,100318.25
2017-10-30T18:05:49.489Z,100333.81
2017-10-30T18:11:53.307Z,100330.93
2017-10-30T18:17:57.543Z,100330.39
2017-10-30T18:24:01.334Z,100326.94
2017-10-30T18:30:04.875Z,100330.23
2017-10-30T18:36:08.538Z,100343.58
2017-10-30T18:42:12.132Z,100355.09
2017-10-30T18:48:16.027Z,100362.84
2017-10-30T18:54:20.579Z,100358.27
2017-10-30T19:00:24.237Z,100363.88
2017-10-30T19:06:27.911Z,100359.59
2017-10-30T19:12:31.542Z,100363.59
2017-10-30T19:18:35.921Z,100363.27
2017-10-30T19:24:39.534Z,100365.76
2017-10-30T19:30:43.161Z,100369.85
2017-10-30T19:36:47.053Z,100370.55
2017-10-30T19:42:50.548Z,100376.31
2017-10-30T19:48:55.543Z,100381.14
2017-10-30T19:54:59.101Z,100384.23
2017-10-30T20:01:02.571Z,100393.86
2017-10-30T20:07:11.656Z,100389.77
2017-10-30T20:13:15.980Z,100400.08
2017-10-30T20:19:20.321Z,100400.23
2017-10-30T20:25:24.124Z,100410.23
2017-10-30T20:31:28.462Z,100408.06
2017-10-30T20:37:31.939Z,100411.36
2017-10-30T20:43:35.666Z,100418.03
2017-10-30T20:49:39.183Z,100416.58
2017-10-30T20:55:42.971Z,100423.70
2017-10-30T21:01:46.557Z,100426.77
2017-10-30T21:07:50.101Z,100419.00
2017-10-30T21:13:53.594Z,100432.83
2017-10-30T21:19:58.253Z,100439.89
2017-10-30T21:26:01.822Z,100430.97
2017-10-30T21:32:05.349Z,100432.80
2017-10-30T21:38:08.846Z,100430.73
2017-10-30T21:44:13.111Z,100427.02
2017-10-30T21:50:17.301Z,100431.18
2017-10-30T21:56:20.833Z,100422.17
2017-10-30T22:02:25.082Z,100423.81
2017-10-30T22:08:28.859Z,100422.14
2017-10-30T22:14:32.382Z,100412.19
2017-10-30T22:20:35.861Z,100407.95
2017-10-30T22:26:39.701Z,100406.87
2017-10-30T22:32:43.481Z,100404.58
2017-10-30T22:38:47.066Z,100397.42
2017-10-30T22:44:51.504Z,100394.46
2017-10-30T22:50:55.271Z,100388.77
2017-10-30T22:56:58.871Z,100403.32
2017-10-30T23:03:02.463Z,100402.27
2017-10-30T23:09:06.012Z,100406.45
2017-10-30T23:15:09.509Z,100401.98
2017-10-30T23:21:14.373Z,100407.06
2017-10-30T23:27:18.862Z,100410.30
2017-10-30T23:33:22.569Z,100404.52
2017-10-30T23:39:26.355Z,100404.19
2017-10-30T23:45:29.824Z,100404.54
2017-10-30T23:51:33.310Z,100404.95
2017-10-30T23:57:36.760Z,100387.19
